Time;durP1;ratioP1;P1;durP2;ratioP2;P2;SDS_P1;SDS_P2;PMS_P1;PMS_P2;Temp;Humidity;BMP_temperature;BMP_pressure;BME280_temperature;BME280_humidity;BME280_pressure;Samples;Min_cycle;Max_cycle;Signal;HPM_P1;HPM_P2
2023/01/26 00:01:31;;;;;;;6.95;6.65;;;10.00;99.90;;;;;;4941187;29;20402;-91
2023/01/26 00:03:58;;;;;;;7.10;6.80;;;9.90;99.90;;;;;;4941298;29;20031;-90
2023/01/26 00:06:25;;;;;;;7.43;6.85;;;9.90;99.90;;;;;;4941264;29;20489;-90
2023/01/26 00:08:55;;;;;;;7.13;6.57;;;9.80;99.90;;;;;;4941192;29;20058;-90
2023/01/26 00:11:28;;;;;;;7.20;6.68;;;9.80;99.90;;;;;;4942347;29;20062;-90
2023/01/26 00:13:58;;;;;;;12.50;6.25;;;9.80;99.90;;;;;;4942220;29;20031;-91
2023/01/26 00:16:26;;;;;;;6.38;5.50;;;9.80;99.90;;;;;;4941052;29;20122;-91
2023/01/26 00:18:53;;;;;;;6.25;5.45;;;9.80;99.90;;;;;;4940845;29;20035;-91
2023/01/26 00:21:21;;;;;;;9.30;5.07;;;9.80;99.90;;;;;;4941034;29;20508;-92
2023/01/26 00:23:52;;;;;;;5.07;4.55;;;9.80;99.90;;;;;;4941049;29;20050;-89
2023/01/26 00:26:21;;;;;;;8.20;4.57;;;9.70;99.90;;;;;;4940636;29;20501;-90
2023/01/26 00:28:50;;;;;;;8.50;4.53;;;9.70;99.90;;;;;;4940777;29;20031;-92
2023/01/26 00:31:25;;;;;;;6.90;4.70;;;9.70;99.90;;;;;;4941006;29;20020;-90
2023/01/26 00:33:53;;;;;;;15.32;5.88;;;9.60;99.90;;;;;;4941023;29;20042;-91
2023/01/26 00:36:20;;;;;;;9.98;5.97;;;9.60;99.90;;;;;;4940866;29;20042;-91
2023/01/26 00:38:54;;;;;;;10.18;5.65;;;9.70;99.90;;;;;;4940842;29;20028;-91
2023/01/26 00:44:06;;;;;;;8.10;4.05;;;9.60;99.90;;;;;;4940625;29;20035;-91
2023/01/26 00:46:33;;;;;;;10.07;3.58;;;9.60;99.90;;;;;;4940252;29;20382;-91
2023/01/26 00:49:00;;;;;;;11.70;3.03;;;9.60;99.90;;;;;;4940469;29;20489;-90
2023/01/26 00:51:27;;;;;;;11.63;3.30;;;9.60;99.90;;;;;;4940415;29;20031;-91
2023/01/26 00:53:54;;;;;;;10.50;3.13;;;9.60;99.90;;;;;;4971879;28;20066;-91
2023/01/26 00:56:20;;;;;;;7.55;2.35;;;9.60;99.90;;;;;;4975814;28;20037;-89
2023/01/26 00:58:53;;;;;;;7.22;2.75;;;9.60;99.90;;;;;;4975693;28;20031;-90
2023/01/26 01:01:20;;;;;;;6.82;2.38;;;9.50;99.90;;;;;;4976179;28;20066;-90
2023/01/26 01:03:46;;;;;;;5.80;2.42;;;9.50;99.90;;;;;;4975337;28;20035;-90
2023/01/26 01:06:13;;;;;;;4.22;2.40;;;9.60;99.90;;;;;;4975242;28;20054;-92
2023/01/26 01:08:40;;;;;;;5.88;2.47;;;9.60;99.90;;;;;;4975371;28;20114;-93
2023/01/26 01:11:09;;;;;;;3.70;2.10;;;9.60;99.90;;;;;;4975354;28;20033;-91
2023/01/26 01:13:36;;;;;;;6.25;2.30;;;9.60;99.90;;;;;;4975184;28;20027;-90
2023/01/26 01:16:12;;;;;;;6.72;2.30;;;9.60;99.90;;;;;;4975270;28;20137;-91
2023/01/26 01:18:39;;;;;;;8.88;2.42;;;9.60;99.90;;;;;;4975106;28;20030;-90
2023/01/26 01:21:15;;;;;;;3.08;2.30;;;9.60;99.90;;;;;;4974862;28;20403;-92
2023/01/26 01:23:42;;;;;;;3.35;2.17;;;9.60;99.90;;;;;;4974991;28;20412;-91
2023/01/26 01:26:09;;;;;;;6.72;2.40;;;9.70;99.90;;;;;;4975220;28;20019;-91
2023/01/26 01:28:37;;;;;;;4.40;2.50;;;9.60;99.90;;;;;;4975018;28;20026;-90
2023/01/26 01:31:07;;;;;;;6.40;2.80;;;9.60;99.90;;;;;;4976066;28;20532;-91
2023/01/26 01:33:36;;;;;;;3.03;2.80;;;9.60;99.90;;;;;;4976760;28;20035;-92
2023/01/26 01:36:09;;;;;;;4.35;3.80;;;9.50;99.90;;;;;;4977126;28;20046;-93
2023/01/26 01:38:36;;;;;;;5.00;4.80;;;9.60;99.90;;;;;;4974747;28;20031;-91
2023/01/26 01:41:03;;;;;;;6.15;5.72;;;9.50;99.90;;;;;;4974899;28;20031;-90
2023/01/26 01:43:30;;;;;;;6.63;5.97;;;9.60;99.90;;;;;;4974788;28;20113;-90
2023/01/26 01:46:00;;;;;;;6.70;6.30;;;9.50;99.90;;;;;;4974763;28;20029;-90
2023/01/26 01:48:51;;;;;;;7.25;6.85;;;9.50;99.90;;;;;;4974667;28;20035;-90
2023/01/26 01:51:44;;;;;;;7.60;7.00;;;9.50;99.90;;;;;;4974755;28;20042;-91
2023/01/26 01:54:15;;;;;;;7.68;6.97;;;9.50;99.90;;;;;;4939434;29;20039;-92
2023/01/26 01:56:51;;;;;;;7.28;6.97;;;9.50;99.90;;;;;;4958870;28;20030;-91
2023/01/26 01:59:20;;;;;;;7.35;7.05;;;9.40;99.90;;;;;;4941719;28;20030;-89
2023/01/26 02:01:49;;;;;;;7.20;6.80;;;9.40;99.90;;;;;;4942257;28;20031;-89
2023/01/26 02:04:18;;;;;;;7.15;6.75;;;9.50;99.90;;;;;;4942379;28;20434;-90
2023/01/26 02:06:55;;;;;;;6.97;6.47;;;9.50;99.90;;;;;;4958361;28;20035;-91
2023/01/26 02:12:36;;;;;;;5.93;5.53;;;9.60;99.90;;;;;;4958322;28;20097;-90
2023/01/26 02:15:04;;;;;;;5.10;4.80;;;9.60;99.90;;;;;;4942611;28;20499;-90
2023/01/26 02:17:31;;;;;;;8.48;4.70;;;9.60;99.90;;;;;;4942444;28;20066;-90
2023/01/26 02:20:17;;;;;;;5.50;4.38;;;9.70;99.90;;;;;;4942406;28;20035;-90
2023/01/26 02:22:46;;;;;;;5.50;4.60;;;9.70;99.90;;;;;;4943087;28;20412;-90
2023/01/26 02:25:26;;;;;;;8.13;4.50;;;9.70;99.90;;;;;;4942456;28;20079;-90
2023/01/26 02:27:53;;;;;;;7.00;4.60;;;9.60;99.90;;;;;;4942196;28;20038;-91
2023/01/26 02:30:22;;;;;;;6.53;4.60;;;9.70;99.90;;;;;;4942290;28;20019;-90
2023/01/26 02:32:49;;;;;;;7.75;4.13;;;9.70;99.90;;;;;;4942161;28;20031;-90
2023/01/26 02:35:15;;;;;;;5.43;4.03;;;9.80;99.90;;;;;;4942240;28;20019;-93
2023/01/26 02:37:42;;;;;;;5.97;4.53;;;9.80;99.90;;;;;;4942073;28;20031;-90
2023/01/26 02:40:37;;;;;;;6.78;4.20;;;9.90;99.90;;;;;;4942154;28;20055;-91
2023/01/26 02:43:04;;;;;;;5.93;4.13;;;10.00;99.90;;;;;;4942189;28;20493;-90
2023/01/26 02:45:33;;;;;;;7.10;3.88;;;10.00;99.90;;;;;;4942310;28;20035;-92
2023/01/26 02:48:03;;;;;;;10.65;4.40;;;10.00;99.90;;;;;;4958101;28;20030;-91
2023/01/26 02:50:31;;;;;;;6.45;3.92;;;10.00;99.90;;;;;;4942043;28;20027;-89
2023/01/26 02:52:58;;;;;;;6.43;4.32;;;10.00;99.90;;;;;;4941991;28;20062;-90
2023/01/26 02:55:26;;;;;;;8.30;3.92;;;10.00;99.90;;;;;;4943254;28;20054;-91
2023/01/26 02:57:58;;;;;;;9.10;3.60;;;10.00;99.90;;;;;;4942670;28;20515;-91
2023/01/26 03:00:39;;;;;;;6.78;4.00;;;9.90;99.90;;;;;;4941942;28;20089;-91
2023/01/26 03:03:14;;;;;;;7.50;3.80;;;9.90;99.90;;;;;;4941907;28;20085;-90
2023/01/26 03:05:41;;;;;;;11.57;4.13;;;9.90;99.90;;;;;;4942007;28;20038;-92
2023/01/26 03:08:08;;;;;;;8.35;4.10;;;9.90;99.90;;;;;;4942327;28;20481;-92
2023/01/26 03:10:37;;;;;;;4.95;3.88;;;9.90;99.90;;;;;;4944671;28;20030;-90
2023/01/26 03:13:05;;;;;;;4.68;3.88;;;9.90;99.90;;;;;;4945473;28;20026;-92
2023/01/26 03:15:42;;;;;;;6.95;3.90;;;9.80;99.90;;;;;;4945481;28;20031;-90
2023/01/26 03:29:21;;;;;;;4.90;3.22;;;9.80;99.90;;;;;;4961067;28;20089;-90
2023/01/26 03:31:48;;;;;;;13.82;3.55;;;9.90;99.90;;;;;;4944956;28;20023;-92
2023/01/26 03:34:15;;;;;;;7.13;3.25;;;9.80;99.90;;;;;;4945068;28;20045;-90
2023/01/26 03:36:44;;;;;;;8.20;3.10;;;9.90;99.90;;;;;;4945411;28;20077;-91
2023/01/26 03:56:23;;;;;;;6.82;3.33;;;9.90;99.90;;;;;;5000094;28;20551;-91
2023/01/26 03:59:07;;;;;;;5.93;3.22;;;9.90;99.90;;;;;;4980607;28;20125;-91
2023/01/26 04:01:37;;;;;;;15.93;3.05;;;9.90;99.90;;;;;;4980038;28;20084;-91
2023/01/26 04:09:45;;;;;;;8.05;2.92;;;9.90;99.90;;;;;;4995926;28;20042;-93
2023/01/26 04:12:13;;;;;;;7.70;2.90;;;9.90;99.90;;;;;;4979830;28;20575;-90
2023/01/26 04:23:15;;;;;;;16.77;3.47;;;9.90;99.90;;;;;;4995306;28;20045;-91
2023/01/26 04:25:42;;;;;;;13.23;4.72;;;10.00;99.90;;;;;;4979430;28;20026;-89
2023/01/26 04:28:11;;;;;;;5.32;3.75;;;10.00;99.90;;;;;;4979591;28;20085;-90
2023/01/26 04:30:38;;;;;;;8.18;4.00;;;10.00;99.90;;;;;;4979949;28;20045;-92
2023/01/26 04:33:05;;;;;;;8.57;3.60;;;10.00;99.90;;;;;;4979100;28;20061;-91
2023/01/26 04:35:33;;;;;;;6.75;3.60;;;10.00;99.90;;;;;;4979413;28;20221;-92
2023/01/26 04:38:00;;;;;;;4.88;4.10;;;10.00;99.90;;;;;;4979165;28;20030;-91
2023/01/26 04:40:27;;;;;;;7.78;4.30;;;10.10;99.90;;;;;;4979275;28;20062;-93
2023/01/26 04:42:54;;;;;;;5.55;4.30;;;10.00;99.90;;;;;;4979267;28;20038;-92
2023/01/26 04:45:20;;;;;;;9.00;4.30;;;10.00;99.90;;;;;;4979195;28;20019;-92
2023/01/26 04:47:48;;;;;;;5.32;4.30;;;10.00;99.90;;;;;;4978933;28;20034;-94
2023/01/26 04:50:17;;;;;;;11.70;4.45;;;10.10;99.90;;;;;;4979289;28;20018;-91
2023/01/26 04:52:46;;;;;;;11.70;4.80;;;10.20;99.90;;;;;;4965831;28;20127;-91
2023/01/26 04:55:15;;;;;;;6.65;4.35;;;10.20;99.90;;;;;;4943832;28;20027;-92
2023/01/26 04:57:43;;;;;;;14.82;5.38;;;10.20;99.90;;;;;;4943919;28;20107;-91
2023/01/26 05:00:12;;;;;;;8.43;4.28;;;10.20;99.90;;;;;;4943842;28;20023;-92
2023/01/26 05:02:40;;;;;;;14.57;4.65;;;10.20;99.90;;;;;;4943814;28;20090;-94
2023/01/26 05:05:09;;;;;;;9.27;4.00;;;10.20;99.90;;;;;;4943992;28;20035;-92
2023/01/26 05:07:36;;;;;;;9.23;4.32;;;10.20;99.90;;;;;;4943758;28;20031;-91
2023/01/26 05:10:03;;;;;;;18.05;4.80;;;10.20;99.90;;;;;;4943874;28;20039;-93
2023/01/26 05:12:50;;;;;;;9.00;3.78;;;10.10;99.90;;;;;;4962269;28;20035;-91
2023/01/26 05:15:26;;;;;;;6.68;3.80;;;10.10;99.90;;;;;;4961776;28;20103;-92
2023/01/26 05:18:01;;;;;;;18.77;3.85;;;10.10;99.90;;;;;;4952524;28;20022;-92
2023/01/26 05:20:54;;;;;;;10.50;3.50;;;10.00;99.90;;;;;;4954994;28;20432;-94
2023/01/26 05:23:26;;;;;;;6.70;3.30;;;10.00;99.90;;;;;;4943911;28;20137;-90
2023/01/26 05:26:22;;;;;;;4.93;3.30;;;10.00;99.90;;;;;;4947096;28;20058;-91
2023/01/26 05:29:02;;;;;;;12.07;3.33;;;10.00;99.90;;;;;;4920282;29;20045;-90
2023/01/26 05:31:29;;;;;;;9.15;3.75;;;9.90;99.90;;;;;;4904504;29;20481;-89
2023/01/26 05:33:55;;;;;;;10.07;3.22;;;9.90;99.90;;;;;;4903851;29;20123;-91
2023/01/26 05:36:24;;;;;;;9.23;3.20;;;10.00;99.90;;;;;;4903204;29;20047;-94
2023/01/26 05:38:50;;;;;;;10.95;3.60;;;10.00;99.90;;;;;;4904470;29;20643;-92
2023/01/26 05:41:21;;;;;;;6.03;3.38;;;9.90;99.90;;;;;;4904981;29;20035;-92
2023/01/26 05:44:02;;;;;;;10.30;3.80;;;9.90;99.90;;;;;;4906507;29;20115;-95
2023/01/26 05:46:40;;;;;;;11.02;3.17;;;9.90;99.90;;;;;;4905805;29;20028;-93
2023/01/26 05:49:07;;;;;;;8.98;3.00;;;9.90;99.90;;;;;;4904092;29;20510;-91
2023/01/26 05:51:37;;;;;;;7.82;2.78;;;9.90;99.90;;;;;;4904604;29;20028;-91
2023/01/26 05:54:06;;;;;;;11.23;2.92;;;9.90;99.90;;;;;;4942959;28;20043;-92
2023/01/26 05:56:34;;;;;;;10.57;3.33;;;9.90;99.90;;;;;;4947199;28;20031;-92
2023/01/26 05:59:04;;;;;;;5.95;3.20;;;9.90;99.90;;;;;;4948903;28;20569;-93
2023/01/26 06:01:31;;;;;;;5.40;2.78;;;9.90;99.90;;;;;;4978323;28;20034;-89
2023/01/26 06:04:01;;;;;;;8.05;3.38;;;9.80;99.90;;;;;;4978465;28;20038;-93
2023/01/26 06:06:36;;;;;;;11.82;3.03;;;9.80;99.90;;;;;;4978850;28;20026;-90
2023/01/26 06:09:21;;;;;;;5.28;2.85;;;9.80;99.90;;;;;;4980292;28;20027;-90
2023/01/26 06:12:17;;;;;;;5.60;3.55;;;9.80;99.90;;;;;;4994688;28;20080;-90
2023/01/26 06:15:11;;;;;;;12.13;3.55;;;9.80;99.90;;;;;;4974890;28;20139;-90
2023/01/26 06:17:42;;;;;;;8.82;3.20;;;9.80;99.90;;;;;;4959121;28;20035;-92
2023/01/26 06:20:13;;;;;;;11.02;3.40;;;9.80;99.90;;;;;;4958800;28;20070;-91
2023/01/26 06:22:44;;;;;;;13.73;4.00;;;9.80;99.90;;;;;;4959076;28;20066;-91
2023/01/26 06:25:11;;;;;;;11.02;3.60;;;9.80;99.90;;;;;;4958567;28;20038;-90
2023/01/26 06:27:40;;;;;;;8.77;3.38;;;9.80;99.90;;;;;;4958450;28;20031;-88
2023/01/26 06:30:14;;;;;;;5.85;3.58;;;9.80;99.90;;;;;;4959590;28;20031;-91
2023/01/26 06:32:41;;;;;;;5.65;3.40;;;9.80;99.90;;;;;;4958644;28;20035;-93
2023/01/26 06:35:08;;;;;;;9.70;4.63;;;9.80;99.90;;;;;;4958791;28;20511;-92
2023/01/26 06:37:36;;;;;;;6.50;4.47;;;9.90;99.90;;;;;;4958315;28;20030;-92
2023/01/26 06:40:02;;;;;;;4.72;3.90;;;9.90;99.90;;;;;;4958691;28;20038;-90
2023/01/26 06:42:30;;;;;;;7.68;4.20;;;10.00;99.90;;;;;;4958658;28;20039;-91
2023/01/26 06:44:57;;;;;;;6.78;4.80;;;10.00;99.90;;;;;;4960193;28;20054;-90
2023/01/26 06:47:24;;;;;;;5.82;5.00;;;10.00;99.90;;;;;;4963089;28;20114;-91
2023/01/26 06:49:52;;;;;;;9.75;4.68;;;10.00;99.90;;;;;;4962259;28;20026;-92
2023/01/26 06:52:34;;;;;;;13.10;5.00;;;10.00;99.90;;;;;;4962020;28;20109;-92
2023/01/26 06:55:40;;;;;;;10.60;4.97;;;10.00;99.90;;;;;;4963023;28;20037;-93
2023/01/26 06:58:28;;;;;;;9.70;4.90;;;10.10;99.90;;;;;;4978654;28;20068;-93
2023/01/26 07:01:15;;;;;;;10.90;5.60;;;10.00;99.90;;;;;;4978275;28;20384;-93
2023/01/26 07:03:42;;;;;;;8.88;5.28;;;10.00;99.90;;;;;;4961738;28;20038;-92
2023/01/26 07:06:12;;;;;;;5.57;4.88;;;10.00;99.90;;;;;;4961903;28;20022;-92
2023/01/26 07:08:40;;;;;;;12.70;5.60;;;10.00;99.90;;;;;;4962069;28;20033;-91
2023/01/26 07:11:08;;;;;;;10.13;5.53;;;10.00;99.90;;;;;;4962104;28;20110;-91
2023/01/26 07:13:35;;;;;;;9.45;5.60;;;10.10;99.90;;;;;;4961799;28;20101;-93
2023/01/26 07:16:05;;;;;;;7.70;6.13;;;10.10;99.90;;;;;;4963447;28;20055;-91
2023/01/26 07:18:32;;;;;;;8.98;6.07;;;10.10;99.90;;;;;;4962110;28;20134;-95
2023/01/26 07:21:04;;;;;;;13.20;5.53;;;10.10;99.90;;;;;;4961614;28;20110;-93
2023/01/26 07:23:30;;;;;;;7.60;5.43;;;10.20;99.90;;;;;;4961613;28;20039;-93
2023/01/26 07:26:04;;;;;;;14.50;6.22;;;10.20;99.90;;;;;;4969938;28;20045;-92
2023/01/26 07:28:33;;;;;;;13.35;6.00;;;10.20;99.90;;;;;;4981192;28;20041;-91
2023/01/26 07:31:00;;;;;;;6.90;5.50;;;10.10;99.90;;;;;;4980847;28;20033;-92
2023/01/26 07:33:29;;;;;;;6.05;4.75;;;10.10;99.90;;;;;;4980639;28;20053;-92
2023/01/26 07:35:56;;;;;;;6.88;4.28;;;10.00;99.90;;;;;;4980503;28;20034;-94
2023/01/26 07:38:25;;;;;;;8.20;4.10;;;10.00;99.90;;;;;;4980467;28;20058;-92
2023/01/26 07:40:52;;;;;;;5.78;4.15;;;9.90;99.90;;;;;;4980492;28;20038;-92
2023/01/26 07:43:22;;;;;;;7.40;4.00;;;9.90;99.90;;;;;;4979815;28;20118;-91
2023/01/26 07:45:54;;;;;;;12.45;4.15;;;9.90;99.90;;;;;;4980831;28;20034;-93
2023/01/26 07:48:23;;;;;;;10.52;4.20;;;9.90;99.90;;;;;;4980813;28;20515;-93
2023/01/26 07:50:50;;;;;;;4.90;3.30;;;9.90;99.90;;;;;;4980112;28;20058;-90
2023/01/26 07:53:18;;;;;;;6.22;3.50;;;9.90;99.90;;;;;;4980006;28;20046;-93
2023/01/26 07:55:45;;;;;;;6.38;3.63;;;9.80;99.90;;;;;;4979488;28;20497;-90
2023/01/26 07:58:12;;;;;;;7.97;3.78;;;9.90;99.90;;;;;;4980123;28;20106;-90
2023/01/26 08:00:39;;;;;;;10.98;4.72;;;9.80;99.90;;;;;;4980947;28;20018;-90
2023/01/26 08:03:06;;;;;;;7.25;4.10;;;9.80;99.90;;;;;;4980197;28;20038;-92
2023/01/26 08:05:34;;;;;;;9.80;4.43;;;9.80;99.90;;;;;;4980539;28;20022;-92
2023/01/26 08:08:01;;;;;;;11.15;4.40;;;9.90;99.90;;;;;;4980159;28;20058;-94
2023/01/26 08:10:32;;;;;;;9.57;4.93;;;9.90;99.90;;;;;;4980118;28;20026;-90
2023/01/26 08:12:59;;;;;;;8.57;5.03;;;9.90;99.90;;;;;;4979662;28;20038;-90
2023/01/26 08:15:27;;;;;;;17.20;5.10;;;9.90;99.90;;;;;;4979724;28;20046;-94
2023/01/26 08:17:54;;;;;;;15.20;5.53;;;9.90;99.90;;;;;;4980045;28;20045;-91
2023/01/26 08:20:21;;;;;;;10.73;6.28;;;9.90;99.90;;;;;;4979463;28;20022;-91
2023/01/26 08:22:48;;;;;;;13.00;7.15;;;9.90;99.90;;;;;;4979517;28;20049;-91
2023/01/26 08:25:15;;;;;;;18.05;7.85;;;9.90;99.90;;;;;;4979884;28;20081;-92
2023/01/26 08:27:42;;;;;;;12.82;6.13;;;9.90;99.90;;;;;;4979655;28;20034;-91
2023/01/26 08:30:09;;;;;;;9.20;6.13;;;9.90;99.90;;;;;;4979429;28;20472;-90
2023/01/26 08:32:36;;;;;;;13.30;5.60;;;9.90;99.90;;;;;;4979497;28;20034;-91
2023/01/26 08:35:07;;;;;;;8.88;5.55;;;9.90;99.90;;;;;;4979347;28;20037;-91
2023/01/26 08:37:34;;;;;;;9.80;6.20;;;9.90;99.90;;;;;;4979333;28;20030;-90
2023/01/26 08:40:01;;;;;;;11.98;6.05;;;9.80;99.90;;;;;;4978935;28;20030;-94
2023/01/26 08:42:32;;;;;;;11.48;5.85;;;9.80;99.90;;;;;;4979256;28;20034;-92
2023/01/26 08:44:59;;;;;;;12.75;6.10;;;9.80;99.90;;;;;;4979591;28;20141;-93
2023/01/26 08:47:26;;;;;;;9.77;5.55;;;9.70;99.90;;;;;;4979000;28;20033;-91
2023/01/26 08:49:52;;;;;;;14.45;6.35;;;9.70;99.90;;;;;;4979074;28;20404;-91
2023/01/26 08:52:20;;;;;;;8.40;5.88;;;9.60;99.90;;;;;;4978999;28;20126;-92
2023/01/26 08:54:47;;;;;;;8.77;5.63;;;9.60;99.90;;;;;;4979083;28;20027;-94
2023/01/26 08:57:14;;;;;;;7.22;5.28;;;9.60;99.90;;;;;;4979222;28;20484;-92
2023/01/26 08:59:41;;;;;;;6.10;5.10;;;9.50;99.90;;;;;;4978891;28;20030;-91
2023/01/26 09:02:10;;;;;;;9.27;6.07;;;9.50;99.90;;;;;;4979109;28;20026;-92
2023/01/26 09:04:37;;;;;;;9.02;6.70;;;9.40;99.90;;;;;;4979165;28;20085;-93
2023/01/26 09:07:04;;;;;;;14.23;7.75;;;9.40;99.90;;;;;;4978849;28;20559;-92
2023/01/26 09:09:32;;;;;;;16.30;8.85;;;9.40;99.90;;;;;;4979085;28;20073;-92
2023/01/26 09:11:58;;;;;;;16.08;8.18;;;9.50;99.90;;;;;;4979037;28;20026;-91
2023/01/26 09:14:26;;;;;;;16.67;7.90;;;9.50;99.90;;;;;;4979204;28;20049;-90
2023/01/26 09:16:53;;;;;;;13.98;6.85;;;9.40;99.90;;;;;;4981569;28;20026;-91
2023/01/26 09:19:19;;;;;;;12.52;6.22;;;9.40;99.90;;;;;;4982600;28;20472;-91
2023/01/26 09:21:46;;;;;;;10.07;5.90;;;9.40;99.90;;;;;;4978766;28;20030;-93
2023/01/26 09:24:16;;;;;;;8.82;4.38;;;9.40;99.90;;;;;;4978370;28;20101;-92
2023/01/26 09:26:43;;;;;;;6.00;5.15;;;9.30;99.90;;;;;;4978538;28;20038;-94
2023/01/26 09:29:09;;;;;;;9.27;5.93;;;9.30;99.90;;;;;;4978560;28;20080;-91
2023/01/26 09:31:36;;;;;;;11.85;5.38;;;9.30;99.90;;;;;;4978448;28;20026;-92
2023/01/26 09:34:03;;;;;;;7.80;5.35;;;9.20;99.90;;;;;;4978230;28;20065;-91
2023/01/26 09:36:30;;;;;;;8.20;4.68;;;9.20;99.90;;;;;;4978686;28;20030;-95
2023/01/26 09:38:57;;;;;;;8.45;5.45;;;9.20;99.90;;;;;;4978564;28;20023;-93
2023/01/26 09:41:45;;;;;;;5.88;5.28;;;9.10;99.90;;;;;;4978483;28;20058;-92
2023/01/26 09:44:27;;;;;;;6.28;5.68;;;9.00;99.90;;;;;;4976080;28;20041;-94
2023/01/26 09:47:06;;;;;;;5.57;5.10;;;8.90;99.90;;;;;;4975073;28;20031;-94
2023/01/26 09:49:57;;;;;;;6.20;5.60;;;8.80;99.90;;;;;;4974937;28;20125;-93
2023/01/26 09:52:29;;;;;;;6.18;5.63;;;8.70;99.90;;;;;;4958724;28;20102;-94
2023/01/26 09:55:02;;;;;;;7.00;4.53;;;8.70;99.90;;;;;;4959061;28;20168;-92
2023/01/26 09:57:32;;;;;;;7.97;5.10;;;8.70;99.90;;;;;;4975073;28;20444;-93
2023/01/26 10:00:14;;;;;;;5.35;4.95;;;8.70;99.90;;;;;;4959470;28;20034;-92
2023/01/26 10:03:05;;;;;;;5.10;4.68;;;8.60;99.90;;;;;;4959660;28;20046;-91
2023/01/26 10:05:46;;;;;;;8.07;6.65;;;8.60;99.90;;;;;;4901243;29;20044;-92
2023/01/26 10:08:34;;;;;;;7.35;6.15;;;8.60;99.90;;;;;;4886239;29;20310;-92
2023/01/26 10:11:24;;;;;;;11.98;6.13;;;8.60;99.90;;;;;;4885714;29;20036;-91
2023/01/26 10:13:56;;;;;;;9.25;7.63;;;8.50;99.90;;;;;;4863720;29;20037;-92
2023/01/26 10:16:24;;;;;;;8.88;7.82;;;8.50;99.90;;;;;;4873366;29;20130;-90
2023/01/26 10:19:02;;;;;;;8.40;7.60;;;8.40;99.90;;;;;;4866142;29;20119;-91
2023/01/26 10:21:39;;;;;;;6.95;6.35;;;8.40;99.90;;;;;;4866836;29;20056;-91
2023/01/26 10:24:11;;;;;;;5.85;5.32;;;8.40;99.90;;;;;;4866529;29;20491;-90
2023/01/26 10:26:37;;;;;;;6.00;5.50;;;8.30;99.90;;;;;;4863698;29;20037;-91
2023/01/26 10:29:04;;;;;;;6.25;5.68;;;8.30;99.90;;;;;;4863608;29;20033;-90
2023/01/26 10:31:33;;;;;;;5.90;5.50;;;8.30;99.90;;;;;;4863509;29;20055;-89
2023/01/26 10:34:22;;;;;;;7.45;6.78;;;8.30;99.90;;;;;;4863453;29;20496;-91
2023/01/26 10:37:20;;;;;;;7.43;5.80;;;8.30;99.90;;;;;;4863428;29;20124;-93
2023/01/26 10:40:16;;;;;;;7.32;6.75;;;8.30;99.90;;;;;;4863625;29;20056;-92
2023/01/26 10:42:59;;;;;;;8.77;8.13;;;8.40;99.90;;;;;;4837723;29;20527;-89
2023/01/26 10:45:47;;;;;;;6.90;6.43;;;8.40;99.90;;;;;;4829856;29;20041;-88
2023/01/26 10:48:25;;;;;;;9.27;7.55;;;8.30;99.90;;;;;;4842418;29;20033;-91
2023/01/26 10:50:53;;;;;;;7.57;6.97;;;8.40;99.90;;;;;;4860296;29;20041;-89
2023/01/26 10:53:27;;;;;;;7.65;7.00;;;8.40;99.90;;;;;;4848326;29;20057;-88
2023/01/26 10:56:04;;;;;;;;;;;8.40;99.90;;;;;;4842253;29;20053;-91
2023/01/26 10:58:54;;;;;;;7.28;6.70;;;8.40;99.90;;;;;;4877164;29;19919;-88
2023/01/26 11:01:26;;;;;;;7.65;7.25;;;8.30;99.90;;;;;;4887910;29;20100;-90
2023/01/26 11:04:14;;;;;;;7.45;7.05;;;8.30;99.90;;;;;;4865957;29;20051;-89
2023/01/26 11:06:43;;;;;;;6.88;6.57;;;8.30;99.90;;;;;;4866235;29;20081;-91
2023/01/26 11:09:13;;;;;;;8.43;7.78;;;8.30;99.90;;;;;;4866058;29;20030;-90
2023/01/26 11:11:40;;;;;;;6.60;6.30;;;8.30;99.90;;;;;;4881355;29;20033;-91
2023/01/26 11:14:18;;;;;;;6.72;6.25;;;8.30;99.90;;;;;;4869893;29;20128;-93
2023/01/26 11:17:02;;;;;;;6.78;6.20;;;8.40;99.90;;;;;;4866345;29;20039;-91
2023/01/26 11:19:50;;;;;;;6.35;5.72;;;8.50;99.90;;;;;;4910462;29;20039;-90
2023/01/26 11:22:37;;;;;;;6.75;6.25;;;8.40;99.90;;;;;;4955129;29;20079;-91
2023/01/26 11:25:19;;;;;;;7.97;7.47;;;8.40;99.90;;;;;;4938434;29;20038;-90
2023/01/26 11:28:00;;;;;;;7.40;7.00;;;8.50;99.90;;;;;;4939930;29;20107;-91
2023/01/26 11:31:09;;;;;;;7.97;7.18;;;8.50;99.90;;;;;;4923215;29;20063;-89
2023/01/26 11:34:02;;;;;;;8.07;7.38;;;8.50;99.90;;;;;;4938262;29;20039;-90
2023/01/26 11:37:06;;;;;;;8.50;7.90;;;8.50;99.90;;;;;;4926436;29;20035;-89
2023/01/26 11:40:14;;;;;;;9.73;8.43;;;8.50;99.90;;;;;;4926472;29;20039;-90
2023/01/26 11:43:12;;;;;;;9.73;8.77;;;8.60;99.90;;;;;;4932124;29;20101;-91
2023/01/26 11:46:07;;;;;;;11.63;9.05;;;8.70;99.90;;;;;;4942175;29;20027;-91
2023/01/26 11:49:01;;;;;;;11.70;8.65;;;8.80;99.90;;;;;;4933335;29;20076;-89
2023/01/26 11:51:54;;;;;;;11.17;9.10;;;8.80;99.90;;;;;;4925747;29;20481;-92
2023/01/26 11:54:39;;;;;;;8.85;7.95;;;9.00;99.90;;;;;;4951156;28;20277;-91
2023/01/26 11:57:15;;;;;;;17.63;8.02;;;9.10;99.90;;;;;;4944691;28;20088;-91
2023/01/26 11:59:57;;;;;;;11.40;7.97;;;9.20;99.90;;;;;;4941312;29;20027;-92
2023/01/26 12:02:36;;;;;;;11.93;7.20;;;9.30;99.90;;;;;;4941457;29;20046;-90
2023/01/26 12:05:31;;;;;;;9.20;8.05;;;9.30;99.90;;;;;;4941377;29;20038;-91
2023/01/26 12:08:24;;;;;;;14.82;7.95;;;9.40;99.90;;;;;;4928610;29;20035;-90
2023/01/26 12:11:21;;;;;;;9.35;8.00;;;9.60;99.90;;;;;;4941306;29;20035;-91
2023/01/26 12:13:52;;;;;;;10.27;7.57;;;9.70;99.90;;;;;;4941335;29;20063;-91
2023/01/26 12:16:53;;;;;;;7.82;7.07;;;9.60;99.90;;;;;;4957248;29;20035;-91
2023/01/26 12:19:26;;;;;;;20.98;8.10;;;9.70;99.90;;;;;;4958059;29;20556;-91
2023/01/26 12:22:00;;;;;;;11.45;7.53;;;9.80;99.90;;;;;;4957127;29;20035;-90
2023/01/26 12:24:43;;;;;;;11.05;7.50;;;9.90;99.90;;;;;;4941188;29;20050;-90
2023/01/26 12:27:21;;;;;;;11.15;7.90;;;9.90;99.90;;;;;;4925118;29;20027;-93
2023/01/26 12:30:31;;;;;;;11.93;9.05;;;9.90;99.90;;;;;;4941038;29;20035;-91
2023/01/26 12:32:58;;;;;;;9.88;8.70;;;10.00;99.90;;;;;;4865699;29;20395;-92
2023/01/26 12:35:43;;;;;;;14.75;8.13;;;10.00;99.90;;;;;;4865171;29;20037;-94
2023/01/26 12:38:15;;;;;;;;;;;10.10;99.90;;;;;;4865841;29;20407;-94
2023/01/26 12:41:00;;;;;;;9.23;8.27;;;10.20;99.90;;;;;;4880622;29;19918;-92
2023/01/26 12:44:07;;;;;;;10.90;8.20;;;10.20;99.90;;;;;;4864539;29;20052;-93
2023/01/26 12:46:38;;;;;;;9.75;8.93;;;10.20;99.90;;;;;;4867355;29;20527;-92
2023/01/26 12:49:44;;;;;;;10.23;9.20;;;10.30;99.90;;;;;;4869199;29;20125;-91
2023/01/26 12:52:27;;;;;;;10.43;9.40;;;10.30;99.90;;;;;;4875344;29;20081;-92
2023/01/26 12:55:18;;;;;;;11.95;9.95;;;10.30;99.90;;;;;;4899102;29;20143;-92
2023/01/26 12:57:55;;;;;;;10.00;9.20;;;10.40;99.90;;;;;;4898595;29;20040;-91
2023/01/26 13:00:24;;;;;;;10.98;9.90;;;10.40;99.90;;;;;;4898692;29;20563;-93
2023/01/26 13:03:04;;;;;;;12.77;10.57;;;10.40;99.90;;;;;;4898773;29;20055;-91
2023/01/26 13:05:34;;;;;;;10.63;9.85;;;10.50;99.90;;;;;;4883227;29;20043;-91
2023/01/26 13:08:33;;;;;;;12.77;10.30;;;10.60;99.90;;;;;;4903266;28;20531;-91
2023/01/26 13:11:08;;;;;;;15.05;10.52;;;10.70;99.90;;;;;;4896672;29;20489;-93
2023/01/26 13:13:55;;;;;;;10.48;9.80;;;10.70;99.90;;;;;;4924423;29;20035;-91
2023/01/26 13:16:22;;;;;;;13.90;10.20;;;10.70;99.90;;;;;;4924655;29;20027;-93
2023/01/26 13:18:54;;;;;;;10.65;9.60;;;10.70;99.90;;;;;;4924524;29;20028;-93
2023/01/26 13:21:37;;;;;;;10.95;9.95;;;10.70;99.90;;;;;;4924517;29;20497;-90
2023/01/26 13:24:16;;;;;;;12.35;9.90;;;10.70;99.90;;;;;;4925073;29;20481;-90
2023/01/26 13:26:48;;;;;;;11.43;10.00;;;10.60;99.90;;;;;;4924288;29;20035;-91
2023/01/26 13:29:24;;;;;;;10.52;9.65;;;10.50;99.90;;;;;;4924973;29;20070;-90
2023/01/26 13:31:55;;;;;;;9.35;8.55;;;10.50;99.90;;;;;;4925418;29;20031;-92
2023/01/26 13:34:57;;;;;;;12.65;9.05;;;10.50;99.90;;;;;;4924962;29;20032;-91
2023/01/26 13:37:38;;;;;;;9.55;8.73;;;10.50;99.90;;;;;;4936821;29;20053;-90
2023/01/26 13:40:24;;;;;;;9.40;8.60;;;10.50;99.90;;;;;;4924008;29;20041;-89
2023/01/26 13:43:03;;;;;;;10.25;8.10;;;10.50;99.90;;;;;;4924155;29;20114;-92
2023/01/26 13:45:58;;;;;;;9.77;8.30;;;10.50;99.90;;;;;;4924095;29;20039;-89
2023/01/26 13:48:31;;;;;;;12.48;8.80;;;10.50;99.90;;;;;;4924280;29;20031;-91
2023/01/26 13:51:02;;;;;;;9.32;8.50;;;10.60;99.90;;;;;;4923904;29;20023;-93
2023/01/26 13:53:33;;;;;;;9.25;8.27;;;10.60;99.90;;;;;;4943010;28;20055;-90
2023/01/26 13:56:02;;;;;;;9.80;8.80;;;10.60;99.90;;;;;;4963862;28;20034;-91
2023/01/26 13:58:28;;;;;;;10.57;8.50;;;10.60;99.90;;;;;;4978072;28;20029;-90
2023/01/26 14:01:04;;;;;;;10.23;8.02;;;10.50;99.90;;;;;;4977812;28;20030;-91
2023/01/26 14:03:32;;;;;;;14.10;12.80;;;10.50;99.90;;;;;;4978193;28;20038;-92
2023/01/26 14:06:07;;;;;;;12.93;11.68;;;10.40;99.90;;;;;;4977834;28;20029;-92
2023/01/26 14:08:37;;;;;;;13.07;11.27;;;10.20;99.90;;;;;;4994656;28;20041;-91
2023/01/26 14:11:24;;;;;;;10.18;9.40;;;10.20;99.90;;;;;;4978157;28;20034;-92
2023/01/26 14:13:58;;;;;;;15.07;11.13;;;10.10;99.90;;;;;;4957762;28;20045;-91